createdAt,value
2022-07-25T00:02:05.513Z,13.77
2022-07-25T00:04:44.535Z,9.37
2022-07-25T00:07:32.749Z,11.90
2022-07-25T00:10:13.838Z,11.30
2022-07-25T00:12:42.151Z,10.13
2022-07-25T00:18:40.682Z,10.03
2022-07-25T00:21:41.889Z,10.20
2022-07-25T00:24:28.852Z,10.77
2022-07-25T00:27:02.853Z,11.40
2022-07-25T00:29:33.566Z,10.47
2022-07-25T00:32:14.130Z,13.30
2022-07-25T00:34:59.946Z,10.73
2022-07-25T00:37:36.755Z,10.87
2022-07-25T00:40:05.755Z,11.27
2022-07-25T00:42:38.695Z,12.40
2022-07-25T00:45:21.487Z,9.40
2022-07-25T00:47:49.992Z,11.27
2022-07-25T00:50:19.933Z,11.60
2022-07-25T00:52:48.752Z,10.07
2022-07-25T00:55:17.020Z,10.20
2022-07-25T00:58:04.949Z,10.83
2022-07-25T01:00:45.952Z,12.73
2022-07-25T01:03:43.393Z,11.07
2022-07-25T01:06:29.108Z,12.23
2022-07-25T01:08:58.195Z,9.83
2022-07-25T01:11:29.862Z,13.63
2022-07-25T01:13:59.161Z,16.30
2022-07-25T01:16:27.272Z,11.67
2022-07-25T01:18:55.219Z,12.33
2022-07-25T01:21:25.774Z,13.27
2022-07-25T01:23:53.817Z,9.87
2022-07-25T01:26:21.744Z,10.70
2022-07-25T01:28:49.831Z,11.57
2022-07-25T01:31:17.891Z,12.07
2022-07-25T01:33:46.238Z,13.73
2022-07-25T01:36:14.167Z,11.80
2022-07-25T01:38:43.484Z,13.20
2022-07-25T01:41:11.425Z,12.43
2022-07-25T01:43:39.373Z,11.80
2022-07-25T01:46:07.663Z,11.23
2022-07-25T01:48:35.698Z,17.97
2022-07-25T01:51:03.596Z,10.67
2022-07-25T01:53:32.291Z,12.73
2022-07-25T01:56:02.831Z,14.07
2022-07-25T01:58:31.375Z,13.03
2022-07-25T02:00:59.315Z,11.97
2022-07-25T02:03:33.131Z,12.00
2022-07-25T02:06:02.819Z,9.70
2022-07-25T02:08:31.233Z,10.17
2022-07-25T02:11:01.176Z,11.03
2022-07-25T02:13:29.138Z,11.17
2022-07-25T02:15:57.307Z,10.00
2022-07-25T02:18:25.150Z,12.93
2022-07-25T02:20:53.005Z,10.50
2022-07-25T02:23:20.902Z,10.00
2022-07-25T02:34:48.275Z,14.53
2022-07-25T02:37:16.124Z,10.37
2022-07-25T02:39:44.011Z,11.63
2022-07-25T02:42:11.844Z,13.13
2022-07-25T02:44:39.690Z,10.90
2022-07-25T02:47:07.635Z,10.27
2022-07-25T02:49:35.619Z,14.73
2022-07-25T02:52:05.262Z,10.23
2022-07-25T02:54:33.116Z,11.60
2022-07-25T02:57:00.986Z,14.40
2022-07-25T02:59:32.409Z,10.30
2022-07-25T03:02:00.540Z,9.87
2022-07-25T03:04:28.488Z,12.50
2022-07-25T03:06:56.414Z,18.47
2022-07-25T03:09:25.695Z,9.93
2022-07-25T03:11:53.770Z,9.70
2022-07-25T03:14:21.591Z,10.60
2022-07-25T03:16:49.465Z,11.20
2022-07-25T03:19:17.588Z,12.67
2022-07-25T03:21:46.080Z,10.53
2022-07-25T03:24:13.952Z,13.70
2022-07-25T03:26:43.264Z,11.10
2022-07-25T03:29:11.153Z,16.13
2022-07-25T03:31:39.867Z,10.80
2022-07-25T03:34:08.298Z,11.23
2022-07-25T03:36:36.612Z,11.43
2022-07-25T03:39:05.464Z,12.30
2022-07-25T03:41:34.059Z,9.37
2022-07-25T03:44:03.709Z,11.30
2022-07-25T03:46:31.974Z,11.13
2022-07-25T03:49:00.015Z,11.20
2022-07-25T03:51:27.913Z,14.17
2022-07-25T03:54:05.273Z,11.70
2022-07-25T03:56:43.452Z,10.80
2022-07-25T03:59:15.840Z,12.37
2022-07-25T04:01:44.853Z,11.60
2022-07-25T04:04:13.317Z,12.57
2022-07-25T04:06:42.064Z,9.70
2022-07-25T04:09:11.371Z,9.70
2022-07-25T04:11:39.662Z,10.10
2022-07-25T04:14:08.302Z,12.40
2022-07-25T04:16:37.755Z,11.00
2022-07-25T04:19:08.695Z,11.77
2022-07-25T04:21:36.813Z,12.90
2022-07-25T04:24:05.147Z,10.50
2022-07-25T04:26:33.443Z,10.43
2022-07-25T04:29:03.474Z,10.23
2022-07-25T04:31:31.439Z,11.87
2022-07-25T04:34:01.342Z,10.37
2022-07-25T04:36:29.823Z,11.27
2022-07-25T04:38:57.693Z,10.80
2022-07-25T04:41:25.766Z,10.00
2022-07-25T04:43:54.727Z,18.20
2022-07-25T04:46:23.939Z,13.27
2022-07-25T04:48:52.966Z,12.53
2022-07-25T04:51:22.373Z,10.20
2022-07-25T04:53:50.321Z,10.77
2022-07-25T04:56:18.251Z,10.90
2022-07-25T04:58:46.220Z,9.50
2022-07-25T05:01:14.196Z,11.10
2022-07-25T05:03:50.303Z,9.53
2022-07-25T05:06:18.788Z,11.63
2022-07-25T05:08:48.187Z,10.00
2022-07-25T05:11:16.178Z,12.27
2022-07-25T05:13:47.156Z,10.07
2022-07-25T05:16:15.433Z,12.37
2022-07-25T05:18:43.550Z,12.27
2022-07-25T05:21:12.488Z,9.23
2022-07-25T05:23:40.601Z,9.53
2022-07-25T05:26:09.862Z,11.50
2022-07-25T05:28:37.795Z,8.73
2022-07-25T05:31:05.957Z,8.13
2022-07-25T05:33:35.153Z,9.07
2022-07-25T05:36:05.135Z,8.63
2022-07-25T05:38:35.739Z,9.97
2022-07-25T05:41:16.731Z,8.17
2022-07-25T05:43:46.979Z,9.47
2022-07-25T05:46:17.757Z,19.80
2022-07-25T05:48:46.461Z,10.00
2022-07-25T05:51:14.408Z,8.47
2022-07-25T05:53:42.763Z,8.23
2022-07-25T05:56:10.700Z,11.43
2022-07-25T05:58:40.911Z,8.80
2022-07-25T06:01:09.114Z,9.57
2022-07-25T06:03:37.001Z,8.33
2022-07-25T06:06:05.205Z,8.67
2022-07-25T06:08:33.867Z,7.23
2022-07-25T06:11:03.947Z,7.90
2022-07-25T06:13:32.896Z,7.23
2022-07-25T06:16:04.131Z,7.13
2022-07-25T06:18:32.130Z,7.87
2022-07-25T06:21:00.408Z,7.90
2022-07-25T06:23:28.477Z,8.97
2022-07-25T06:25:57.180Z,7.17
2022-07-25T06:28:25.154Z,8.40
2022-07-25T06:30:53.145Z,7.40
2022-07-25T06:33:22.734Z,8.13
2022-07-25T06:35:50.637Z,7.37
2022-07-25T06:38:18.576Z,8.10
2022-07-25T06:40:46.610Z,7.50
2022-07-25T06:43:14.803Z,8.20
2022-07-25T06:45:47.942Z,6.77
2022-07-25T06:48:16.078Z,6.87
2022-07-25T06:50:45.724Z,9.07
2022-07-25T06:53:13.763Z,7.53
2022-07-25T06:55:41.703Z,8.13
2022-07-25T06:58:10.203Z,7.40
2022-07-25T07:00:45.125Z,7.00
2022-07-25T07:03:13.096Z,6.40
2022-07-25T07:05:43.241Z,6.17
2022-07-25T07:08:14.103Z,7.50
2022-07-25T07:10:42.665Z,6.37
2022-07-25T07:13:12.719Z,6.50
2022-07-25T07:15:49.125Z,6.67
2022-07-25T07:18:17.596Z,5.10
2022-07-25T07:20:45.624Z,5.93
2022-07-25T07:23:17.097Z,6.17
2022-07-25T07:25:47.097Z,8.20
2022-07-25T07:28:15.990Z,6.00
2022-07-25T07:31:15.607Z,5.10
2022-07-25T07:33:33.550Z,6.37
2022-07-25T07:36:01.849Z,4.87
2022-07-25T07:38:31.176Z,5.80
2022-07-25T07:40:59.102Z,8.93
2022-07-25T07:43:30.026Z,5.90
2022-07-25T07:46:00.606Z,6.23
2022-07-25T07:48:29.207Z,5.40
2022-07-25T07:50:57.282Z,6.30
2022-07-25T07:53:45.737Z,5.43
2022-07-25T07:56:14.205Z,6.23
2022-07-25T07:58:42.165Z,5.30
2022-07-25T08:01:11.179Z,6.23
2022-07-25T08:03:39.293Z,5.27
2022-07-25T08:06:07.697Z,5.63
2022-07-25T08:08:35.696Z,5.77
2022-07-25T08:11:03.670Z,4.90
2022-07-25T08:13:34.200Z,5.47
2022-07-25T08:16:04.339Z,6.67
2022-07-25T08:18:33.717Z,4.83
2022-07-25T08:21:05.448Z,4.87
2022-07-25T08:23:34.655Z,8.73
2022-07-25T08:26:04.041Z,4.80
2022-07-25T08:28:33.525Z,6.73
2022-07-25T08:31:01.874Z,4.60
2022-07-25T08:33:29.954Z,5.73
2022-07-25T08:36:01.492Z,5.00
2022-07-25T08:38:30.059Z,4.93
2022-07-25T08:40:59.677Z,4.90
2022-07-25T08:43:29.220Z,5.43
2022-07-25T08:46:01.114Z,4.90
2022-07-25T08:48:29.695Z,5.27
2022-07-25T08:50:58.196Z,5.10
2022-07-25T08:53:33.302Z,4.37
2022-07-25T08:56:06.654Z,4.93
2022-07-25T08:58:38.792Z,4.40
2022-07-25T09:01:08.231Z,4.80
2022-07-25T09:03:36.614Z,6.07
2022-07-25T09:06:15.713Z,5.27
2022-07-25T09:08:52.900Z,4.63
2022-07-25T09:11:32.186Z,4.57
2022-07-25T09:14:01.925Z,5.50
2022-07-25T09:16:40.154Z,4.87
2022-07-25T09:19:13.188Z,4.20
2022-07-25T09:21:42.317Z,4.47
2022-07-25T09:24:12.735Z,4.10
2022-07-25T09:26:48.683Z,4.37
2022-07-25T09:29:22.372Z,5.17
2022-07-25T09:31:52.743Z,3.30
2022-07-25T09:34:36.290Z,12.33
2022-07-25T09:37:06.370Z,3.83
2022-07-25T09:39:35.917Z,7.03
2022-07-25T09:42:14.954Z,4.13
2022-07-25T09:44:42.959Z,4.10
2022-07-25T09:47:16.407Z,4.17
2022-07-25T09:49:47.435Z,3.77
2022-07-25T09:52:17.245Z,10.10
2022-07-25T09:54:45.467Z,3.93
2022-07-25T09:57:13.446Z,4.63
